Terminal Aerodrome Forecast
Issued by NWS Blacksburg, VA

Home | Current Version | Previous Version | Text Only | Print | Product List | Glossary On
Versions: 1 2 3 4 5 6 7 8 9 10 11 12 13 14 15 16 17 18 19 20 21 22 23 24 25 26 27 28 29 30 31 32
227
FTUS41 KRNK 311726
TAFBLF
TAF
KBLF 311726Z 3118/0118 08005KT P6SM VCTS BKN040CB
     FM010300 VRB04KT P6SM SCT060 BKN250
      TEMPO 0109/0112 5SM BR SCT007 SCT012
     FM011500 09006KT P6SM SCT040=

USA.gov is the U.S. government's official web portal to all federal, state and local government web resources and services.